Time;durP1;ratioP1;P1;durP2;ratioP2;P2;SDS_P1;SDS_P2;PMS_P1;PMS_P2;Temp;Humidity;BMP_temperature;BMP_pressure;BME280_temperature;BME280_humidity;BME280_pressure;Samples;Min_cycle;Max_cycle;Signal;HPM_P1;HPM_P2
2021/10/13 00:01:32;;;;;;;73.27;68.60;;;;;;;;;;5034380;28;20460;-64
2021/10/13 00:03:59;;;;;;;71.13;66.63;;;;;;;;;;5035191;28;20456;-64
2021/10/13 00:06:26;;;;;;;74.40;69.60;;;;;;;;;;5034364;28;20501;-64
2021/10/13 00:08:54;;;;;;;76.30;71.80;;;;;;;;;;5035632;28;20962;-64
2021/10/13 00:11:21;;;;;;;75.40;70.80;;;;;;;;;;5034151;28;20503;-65
2021/10/13 00:13:49;;;;;;;76.50;71.63;;;;;;;;;;5033807;28;20471;-64
2021/10/13 00:16:16;;;;;;;75.57;70.97;;;;;;;;;;5033045;28;20472;-64
2021/10/13 00:18:43;;;;;;;75.90;71.20;;;;;;;;;;5028778;28;20471;-66
2021/10/13 00:21:10;;;;;;;75.70;70.60;;;;;;;;;;5031202;28;20464;-66
2021/10/13 00:23:37;;;;;;;73.00;68.40;;;;;;;;;;5035623;28;20448;-65
2021/10/13 00:26:05;;;;;;;76.93;71.60;;;;;;;;;;5033813;28;20496;-64
2021/10/13 00:28:35;;;;;;;75.33;70.77;;;;;;;;;;5037719;28;20474;-65
2021/10/13 00:31:09;;;;;;;78.30;73.60;;;;;;;;;;5033611;28;20874;-65
2021/10/13 00:33:37;;;;;;;76.90;72.10;;;;;;;;;;5034708;28;20453;-66
2021/10/13 00:36:04;;;;;;;77.73;72.80;;;;;;;;;;5032927;28;20472;-64
2021/10/13 00:38:31;;;;;;;78.03;73.33;;;;;;;;;;5033839;28;20963;-65
2021/10/13 00:40:58;;;;;;;77.07;72.27;;;;;;;;;;5034917;28;20445;-65
2021/10/13 00:43:25;;;;;;;77.53;72.70;;;;;;;;;;5033433;28;20453;-65
2021/10/13 00:45:55;;;;;;;75.60;71.10;;;;;;;;;;5030836;28;21030;-65
2021/10/13 00:48:23;;;;;;;76.63;71.27;;;;;;;;;;5034799;28;20453;-66
2021/10/13 00:50:51;;;;;;;75.17;70.27;;;;;;;;;;5029413;28;20460;-65
2021/10/13 00:53:18;;;;;;;75.03;70.33;;;;;;;;;;5034484;28;20445;-65
2021/10/13 00:55:45;;;;;;;75.80;70.80;;;;;;;;;;5032961;28;21038;-66
2021/10/13 00:58:12;;;;;;;77.10;72.30;;;;;;;;;;5034286;28;20451;-65
2021/10/13 01:00:42;;;;;;;81.60;76.37;;;;;;;;;;5031317;28;20978;-66
2021/10/13 01:03:13;;;;;;;75.47;70.67;;;;;;;;;;5034116;28;20487;-65
2021/10/13 01:05:52;;;;;;;77.17;72.37;;;;;;;;;;5033277;28;20495;-66
2021/10/13 01:08:26;;;;;;;77.13;72.30;;;;;;;;;;5034491;28;20444;-65
2021/10/13 01:10:58;;;;;;;75.67;70.87;;;;;;;;;;5030034;28;20970;-65
2021/10/13 01:13:29;;;;;;;75.03;70.33;;;;;;;;;;5034050;28;20475;-65
2021/10/13 01:16:01;;;;;;;73.33;68.53;;;;;;;;;;5032693;28;20498;-65
2021/10/13 01:18:31;;;;;;;73.10;68.17;;;;;;;;;;5033853;28;20787;-64
2021/10/13 01:21:03;;;;;;;73.67;68.87;;;;;;;;;;5034823;28;20472;-67
2021/10/13 01:23:41;;;;;;;72.23;67.33;;;;;;;;;;5033810;28;20847;-66
2021/10/13 01:26:12;;;;;;;74.27;69.27;;;;;;;;;;5031242;28;20492;-65
2021/10/13 01:28:43;;;;;;;73.80;68.87;;;;;;;;;;5033256;28;20452;-65
2021/10/13 01:31:13;;;;;;;73.87;69.10;;;;;;;;;;5034179;28;20480;-65
2021/10/13 01:33:42;;;;;;;74.37;69.50;;;;;;;;;;5031767;28;20951;-65
2021/10/13 01:36:12;;;;;;;72.13;67.40;;;;;;;;;;5032453;28;20484;-65
2021/10/13 01:38:42;;;;;;;74.13;69.27;;;;;;;;;;5033277;28;20468;-66
2021/10/13 01:41:11;;;;;;;74.40;69.60;;;;;;;;;;5032876;28;20479;-65
2021/10/13 01:43:44;;;;;;;74.93;69.97;;;;;;;;;;5033133;28;20459;-65
2021/10/13 01:46:12;;;;;;;72.57;67.97;;;;;;;;;;5032273;28;20492;-66
2021/10/13 01:48:40;;;;;;;74.70;69.90;;;;;;;;;;5034008;28;20802;-65
2021/10/13 01:51:07;;;;;;;75.77;70.90;;;;;;;;;;5029901;28;20460;-65
2021/10/13 01:53:34;;;;;;;77.57;72.43;;;;;;;;;;5033786;28;20455;-65
2021/10/13 01:56:03;;;;;;;73.93;68.93;;;;;;;;;;5031661;28;20995;-64
2021/10/13 01:58:31;;;;;;;73.97;69.17;;;;;;;;;;5032356;28;20464;-65
2021/10/13 02:01:00;;;;;;;73.57;68.57;;;;;;;;;;5032031;28;20977;-64
2021/10/13 02:03:28;;;;;;;76.67;71.53;;;;;;;;;;5032394;28;20460;-65
2021/10/13 02:05:56;;;;;;;73.90;68.90;;;;;;;;;;5031619;28;20887;-65
2021/10/13 02:08:24;;;;;;;75.57;70.53;;;;;;;;;;5033346;28;20444;-65
2021/10/13 02:10:52;;;;;;;72.83;67.90;;;;;;;;;;5029902;28;20461;-65
2021/10/13 02:13:20;;;;;;;76.30;70.93;;;;;;;;;;5032732;28;20847;-65
2021/10/13 02:15:48;;;;;;;74.47;69.57;;;;;;;;;;5031304;28;20489;-63
2021/10/13 02:18:20;;;;;;;72.10;67.37;;;;;;;;;;5032612;28;20449;-64
2021/10/13 02:20:48;;;;;;;76.07;71.00;;;;;;;;;;5033332;28;20436;-64
2021/10/13 02:23:16;;;;;;;77.07;71.77;;;;;;;;;;5031903;28;20457;-64
2021/10/13 02:25:46;;;;;;;77.80;72.60;;;;;;;;;;5032067;28;20490;-64
2021/10/13 02:28:15;;;;;;;77.23;72.13;;;;;;;;;;5030503;28;20956;-64
2021/10/13 02:30:43;;;;;;;80.83;75.33;;;;;;;;;;5029703;28;20464;-66
2021/10/13 02:33:10;;;;;;;76.93;71.43;;;;;;;;;;5032866;28;20563;-64
2021/10/13 02:35:38;;;;;;;81.23;76.03;;;;;;;;;;5030433;28;20484;-64
2021/10/13 02:38:06;;;;;;;85.00;79.43;;;;;;;;;;5032137;28;20449;-64
2021/10/13 02:40:33;;;;;;;83.43;78.23;;;;;;;;;;5032325;28;20471;-65
2021/10/13 02:43:01;;;;;;;79.87;74.37;;;;;;;;;;5032820;28;20455;-64
2021/10/13 02:45:29;;;;;;;79.80;74.50;;;;;;;;;;5030870;28;20489;-64
2021/10/13 02:47:58;;;;;;;81.40;76.07;;;;;;;;;;5032274;28;20444;-64
2021/10/13 02:50:27;;;;;;;76.20;71.00;;;;;;;;;;5028752;28;20495;-64
2021/10/13 02:53:01;;;;;;;77.03;71.63;;;;;;;;;;5032327;28;20567;-65
2021/10/13 02:55:31;;;;;;;79.33;74.07;;;;;;;;;;5030742;28;20485;-64
2021/10/13 02:58:03;;;;;;;85.00;79.47;;;;;;;;;;5032305;28;20433;-64
2021/10/13 03:00:33;;;;;;;84.27;78.83;;;;;;;;;;5031076;28;20464;-64
2021/10/13 03:03:04;;;;;;;82.80;77.40;;;;;;;;;;5032551;28;20452;-64
2021/10/13 03:05:31;;;;;;;79.47;74.17;;;;;;;;;;5030626;28;20484;-66
2021/10/13 03:08:02;;;;;;;89.20;83.60;;;;;;;;;;5032308;28;20479;-64
2021/10/13 03:10:30;;;;;;;84.73;79.13;;;;;;;;;;5030752;28;20464;-65
2021/10/13 03:12:59;;;;;;;82.40;76.90;;;;;;;;;;5030971;28;20488;-64
2021/10/13 03:15:27;;;;;;;80.37;74.97;;;;;;;;;;5030836;28;20489;-64
2021/10/13 03:17:55;;;;;;;82.13;76.70;;;;;;;;;;5031165;28;20475;-64
2021/10/13 03:20:23;;;;;;;88.40;82.90;;;;;;;;;;5031193;28;20474;-64
2021/10/13 03:22:51;;;;;;;82.40;77.03;;;;;;;;;;5031973;28;20449;-64
2021/10/13 03:25:24;;;;;;;80.23;74.83;;;;;;;;;;5059071;22;20515;-67
2021/10/13 03:27:52;;;;;;;85.80;80.00;;;;;;;;;;5089400;28;20461;-66
2021/10/13 03:30:19;;;;;;;86.40;80.90;;;;;;;;;;5090306;28;20964;-66
2021/10/13 03:32:46;;;;;;;85.97;80.10;;;;;;;;;;5091847;28;20481;-67
2021/10/13 03:35:20;;;;;;;80.87;75.40;;;;;;;;;;5084715;28;20479;-65
2021/10/13 03:37:48;;;;;;;85.77;80.17;;;;;;;;;;5091984;28;20460;-66
2021/10/13 03:40:15;;;;;;;84.20;78.60;;;;;;;;;;5083128;28;20541;-66
2021/10/13 03:42:44;;;;;;;81.90;76.50;;;;;;;;;;5091964;28;20788;-66
2021/10/13 03:45:13;;;;;;;82.60;77.10;;;;;;;;;;5089322;28;20490;-66
2021/10/13 03:47:40;;;;;;;87.90;82.40;;;;;;;;;;5091851;28;20453;-66
2021/10/13 03:50:07;;;;;;;85.57;79.97;;;;;;;;;;5085248;28;20465;-66
2021/10/13 03:52:35;;;;;;;84.17;78.33;;;;;;;;;;5091400;28;20478;-66
2021/10/13 03:55:02;;;;;;;89.13;83.23;;;;;;;;;;5072206;28;20478;-66
2021/10/13 03:57:29;;;;;;;83.00;77.40;;;;;;;;;;5056395;28;20448;-67
2021/10/13 03:59:57;;;;;;;86.53;80.83;;;;;;;;;;5074929;28;20466;-66
2021/10/13 04:02:24;;;;;;;83.47;77.87;;;;;;;;;;5090474;28;20449;-66
2021/10/13 04:04:51;;;;;;;83.77;78.07;;;;;;;;;;5080507;28;20492;-66
2021/10/13 04:07:18;;;;;;;89.67;84.03;;;;;;;;;;5091520;28;20445;-66
2021/10/13 04:09:46;;;;;;;88.47;82.57;;;;;;;;;;5087871;28;20991;-67
2021/10/13 04:12:13;;;;;;;89.30;83.40;;;;;;;;;;5089644;28;20575;-66
2021/10/13 04:14:40;;;;;;;89.93;84.10;;;;;;;;;;5089415;28;20543;-66
2021/10/13 04:17:09;;;;;;;88.23;82.10;;;;;;;;;;5092312;28;20454;-67
2021/10/13 04:19:36;;;;;;;87.23;81.33;;;;;;;;;;5090979;28;20462;-67
2021/10/13 04:22:03;;;;;;;90.33;84.43;;;;;;;;;;5089968;28;20467;-69
2021/10/13 04:24:30;;;;;;;92.83;86.83;;;;;;;;;;5076706;28;20469;-66
2021/10/13 04:26:58;;;;;;;88.73;83.10;;;;;;;;;;5092799;28;20454;-67
2021/10/13 04:29:25;;;;;;;89.27;83.27;;;;;;;;;;5089926;28;20806;-65
2021/10/13 04:31:52;;;;;;;88.80;82.87;;;;;;;;;;5091573;28;20445;-67
2021/10/13 04:34:20;;;;;;;91.57;85.87;;;;;;;;;;5081534;28;20463;-67
2021/10/13 04:36:47;;;;;;;91.10;85.13;;;;;;;;;;5080908;28;20479;-66
2021/10/13 04:39:15;;;;;;;91.03;84.93;;;;;;;;;;5070735;28;20809;-66
2021/10/13 04:41:42;;;;;;;90.97;85.07;;;;;;;;;;5073143;28;20458;-67
2021/10/13 04:44:09;;;;;;;92.53;86.73;;;;;;;;;;5084329;28;20442;-68
2021/10/13 04:46:36;;;;;;;91.90;85.70;;;;;;;;;;5074860;28;20458;-68
2021/10/13 04:49:03;;;;;;;91.30;85.40;;;;;;;;;;5090271;28;20967;-67
2021/10/13 04:51:32;;;;;;;93.23;86.93;;;;;;;;;;5095450;28;20466;-67
2021/10/13 04:53:59;;;;;;;97.10;90.87;;;;;;;;;;5088774;28;20492;-67
2021/10/13 04:56:26;;;;;;;95.47;89.20;;;;;;;;;;5095503;28;20477;-67
2021/10/13 04:58:53;;;;;;;94.67;88.67;;;;;;;;;;5077309;28;20462;-67
2021/10/13 05:01:20;;;;;;;92.70;86.60;;;;;;;;;;5074931;28;20455;-67
2021/10/13 05:03:47;;;;;;;101.90;95.47;;;;;;;;;;5073494;28;20470;-67
2021/10/13 05:06:14;;;;;;;101.43;95.13;;;;;;;;;;5074239;28;20478;-68
2021/10/13 05:08:43;;;;;;;98.37;92.10;;;;;;;;;;5078554;28;20462;-67
2021/10/13 05:11:10;;;;;;;98.67;92.27;;;;;;;;;;5069311;28;20464;-67
2021/10/13 05:13:37;;;;;;;98.50;92.20;;;;;;;;;;5081907;28;20938;-67
2021/10/13 05:16:04;;;;;;;97.03;90.83;;;;;;;;;;5073857;28;20482;-66
2021/10/13 05:18:31;;;;;;;160.20;150.07;;;;;;;;;;5073473;28;20821;-67
2021/10/13 05:20:58;;;;;;;113.43;106.43;;;;;;;;;;5080903;28;20466;-66
2021/10/13 05:23:25;;;;;;;97.20;90.80;;;;;;;;;;5093505;28;20966;-67
2021/10/13 05:25:54;;;;;;;100.67;94.17;;;;;;;;;;5090418;28;20496;-67
2021/10/13 05:28:21;;;;;;;100.77;94.67;;;;;;;;;;5062018;28;20878;-68
2021/10/13 05:30:48;;;;;;;99.17;92.70;;;;;;;;;;5094267;28;20450;-67
2021/10/13 05:33:15;;;;;;;105.40;98.70;;;;;;;;;;5081850;28;20489;-69
2021/10/13 05:35:42;;;;;;;107.90;101.40;;;;;;;;;;5074682;28;20490;-66
2021/10/13 05:38:09;;;;;;;121.03;113.70;;;;;;;;;;5074133;28;20462;-67
2021/10/13 05:40:36;;;;;;;106.77;99.93;;;;;;;;;;5068252;28;20468;-65
2021/10/13 05:43:05;;;;;;;109.90;103.10;;;;;;;;;;5072755;28;20461;-67
2021/10/13 05:45:32;;;;;;;103.00;96.50;;;;;;;;;;5089672;28;20489;-66
2021/10/13 05:47:59;;;;;;;127.23;119.83;;;;;;;;;;5088419;28;20457;-66
2021/10/13 05:50:26;;;;;;;106.90;100.23;;;;;;;;;;5063315;28;20463;-66
2021/10/13 05:52:53;;;;;;;108.43;101.60;;;;;;;;;;5073062;28;20475;-67
2021/10/13 05:55:20;;;;;;;113.53;106.73;;;;;;;;;;5077976;28;20488;-67
2021/10/13 05:57:47;;;;;;;108.17;101.20;;;;;;;;;;5092426;28;20453;-67
2021/10/13 06:00:18;;;;;;;108.50;101.80;;;;;;;;;;5090511;28;20824;-67
2021/10/13 06:02:45;;;;;;;109.37;102.67;;;;;;;;;;5091388;28;20454;-66
2021/10/13 06:05:12;;;;;;;108.07;101.30;;;;;;;;;;5090316;28;20868;-66
2021/10/13 06:07:39;;;;;;;107.17;100.50;;;;;;;;;;5092330;28;20462;-67
2021/10/13 06:10:07;;;;;;;75.57;70.53;;;;;;;;;;5088297;28;20443;-70
2021/10/13 06:12:34;;;;;;;95.40;90.30;;;;;;;;;;5079577;28;20474;-69
2021/10/13 06:15:01;;;;;;;104.53;99.10;;;;;;;;;;5083854;28;20532;-68
2021/10/13 06:17:31;;;;;;;106.10;100.70;;;;;;;;;;5083070;28;20462;-62
2021/10/13 06:19:58;;;;;;;114.27;107.97;;;;;;;;;;5073046;28;20447;-64
2021/10/13 06:22:25;;;;;;;153.70;145.60;;;;;;;;;;5093968;28;20457;-62
2021/10/13 06:24:52;;;;;;;178.13;168.17;;;;;;;;;;5092724;28;20482;-62
2021/10/13 06:27:20;;;;;;;229.40;216.57;;;;;;;;;;5072555;28;20474;-62
2021/10/13 06:29:47;;;;;;;310.70;292.33;;;;;;;;;;5080257;28;20466;-62
2021/10/13 06:32:14;;;;;;;392.10;367.10;;;;;;;;;;5085261;28;20536;-62
2021/10/13 06:34:43;;;;;;;515.67;474.80;;;;;;;;;;5092960;28;20870;-63
2021/10/13 06:37:10;;;;;;;632.27;580.00;;;;;;;;;;5089997;28;20466;-62
2021/10/13 06:39:37;;;;;;;671.67;617.60;;;;;;;;;;5092959;28;20442;-63
2021/10/13 06:42:04;;;;;;;643.60;589.60;;;;;;;;;;5089630;28;20466;-62
2021/10/13 06:44:31;;;;;;;503.10;453.77;;;;;;;;;;5092867;28;20446;-62
2021/10/13 06:46:59;;;;;;;520.73;472.90;;;;;;;;;;5086578;28;20461;-63
2021/10/13 06:49:26;;;;;;;544.90;503.30;;;;;;;;;;5090678;28;20466;-62
2021/10/13 06:51:54;;;;;;;554.73;518.37;;;;;;;;;;5083833;28;20466;-63
2021/10/13 06:54:21;;;;;;;530.00;497.17;;;;;;;;;;5078614;28;20486;-63
2021/10/13 06:56:48;;;;;;;527.23;501.13;;;;;;;;;;5072194;28;20558;-63
2021/10/13 06:59:15;;;;;;;451.30;430.37;;;;;;;;;;5069613;28;20835;-63
2021/10/13 07:01:42;;;;;;;362.67;346.90;;;;;;;;;;5071591;28;20446;-62
2021/10/13 07:04:10;;;;;;;260.80;249.20;;;;;;;;;;5072241;28;20439;-65
2021/10/13 07:06:37;;;;;;;191.50;182.20;;;;;;;;;;5070043;28;20993;-63
2021/10/13 07:09:05;;;;;;;151.00;143.37;;;;;;;;;;5052158;28;20440;-63
2021/10/13 07:11:33;;;;;;;126.60;120.03;;;;;;;;;;5066955;28;20465;-64
2021/10/13 07:14:02;;;;;;;94.87;89.77;;;;;;;;;;5073935;28;20848;-64
2021/10/13 07:16:30;;;;;;;89.53;84.73;;;;;;;;;;5092559;28;20504;-65
2021/10/13 07:18:57;;;;;;;82.43;78.10;;;;;;;;;;5091219;28;20975;-64
2021/10/13 07:21:24;;;;;;;70.27;65.47;;;;;;;;;;5092559;28;20438;-63
2021/10/13 07:23:51;;;;;;;151.50;141.87;;;;;;;;;;5074435;28;20450;-64
2021/10/13 07:26:19;;;;;;;145.90;137.13;;;;;;;;;;5069708;28;20475;-64
2021/10/13 07:28:48;;;;;;;110.50;103.60;;;;;;;;;;5071668;28;20890;-65
2021/10/13 07:31:15;;;;;;;84.20;79.43;;;;;;;;;;5072082;28;20453;-64
2021/10/13 07:33:42;;;;;;;71.00;66.60;;;;;;;;;;5071596;28;20486;-65
2021/10/13 07:36:09;;;;;;;60.27;56.30;;;;;;;;;;5060210;28;20468;-64
2021/10/13 07:38:36;;;;;;;52.57;49.10;;;;;;;;;;5061290;28;20451;-65
2021/10/13 07:41:03;;;;;;;50.13;47.03;;;;;;;;;;5067559;28;20458;-64
2021/10/13 07:43:33;;;;;;;46.20;43.43;;;;;;;;;;5071127;28;20451;-65
2021/10/13 07:46:00;;;;;;;47.00;44.20;;;;;;;;;;5070911;28;20475;-65
2021/10/13 07:48:28;;;;;;;39.63;37.37;;;;;;;;;;5071358;28;20457;-65
2021/10/13 07:50:56;;;;;;;47.00;42.60;;;;;;;;;;5072179;28;20534;-60
2021/10/13 07:53:23;;;;;;;66.53;62.03;;;;;;;;;;5071442;28;20475;-60
2021/10/13 07:55:50;;;;;;;76.77;72.30;;;;;;;;;;5070617;28;20550;-61
2021/10/13 07:58:17;;;;;;;77.00;72.77;;;;;;;;;;5070812;28;20907;-60
2021/10/13 08:00:46;;;;;;;62.03;57.83;;;;;;;;;;5051900;28;20444;-61
2021/10/13 08:03:13;;;;;;;73.50;69.20;;;;;;;;;;5054312;28;20442;-61
2021/10/13 08:05:40;;;;;;;54.57;50.83;;;;;;;;;;5071165;28;20485;-59
2021/10/13 08:08:07;;;;;;;52.87;49.10;;;;;;;;;;5071209;28;20956;-59
2021/10/13 08:10:34;;;;;;;50.37;46.90;;;;;;;;;;5070588;28;20455;-60
2021/10/13 08:13:02;;;;;;;47.17;43.73;;;;;;;;;;5051452;28;20458;-60
2021/10/13 08:15:29;;;;;;;45.43;42.27;;;;;;;;;;5070345;28;20470;-61
2021/10/13 08:17:57;;;;;;;44.27;41.03;;;;;;;;;;5071488;28;20458;-59
2021/10/13 08:20:24;;;;;;;43.13;40.43;;;;;;;;;;5071392;28;20818;-59
2021/10/13 08:22:51;;;;;;;40.50;38.10;;;;;;;;;;5075343;28;20946;-59
2021/10/13 08:25:20;;;;;;;39.80;37.10;;;;;;;;;;5073527;28;20470;-59
2021/10/13 08:27:47;;;;;;;38.10;35.60;;;;;;;;;;5075134;28;20561;-59
2021/10/13 08:30:14;;;;;;;38.10;35.43;;;;;;;;;;5075040;28;20465;-59
2021/10/13 08:32:41;;;;;;;38.63;36.03;;;;;;;;;;5074930;28;20810;-59
2021/10/13 08:35:10;;;;;;;35.13;33.10;;;;;;;;;;5073497;28;20483;-59
2021/10/13 08:37:37;;;;;;;33.70;31.50;;;;;;;;;;5075296;28;20454;-61
2021/10/13 08:40:05;;;;;;;33.60;31.40;;;;;;;;;;5073126;28;20449;-59
2021/10/13 08:42:32;;;;;;;34.27;32.07;;;;;;;;;;5074891;28;20498;-59
2021/10/13 08:44:59;;;;;;;33.70;31.70;;;;;;;;;;5074267;28;20474;-59
2021/10/13 08:47:26;;;;;;;36.93;34.70;;;;;;;;;;5074723;28;20469;-60
2021/10/13 08:49:55;;;;;;;31.00;29.00;;;;;;;;;;5074698;28;20458;-59
2021/10/13 08:52:24;;;;;;;34.50;32.60;;;;;;;;;;5074961;28;20451;-59
2021/10/13 08:54:55;;;;;;;35.03;33.03;;;;;;;;;;5074195;28;20513;-59
2021/10/13 08:57:23;;;;;;;29.40;27.70;;;;;;;;;;5074667;28;20458;-60
2021/10/13 08:59:51;;;;;;;29.93;28.17;;;;;;;;;;5074449;28;20446;-61
2021/10/13 09:02:36;;;;;;;28.80;26.80;;;;;;;;;;5072285;28;20957;-60
2021/10/13 09:05:04;;;;;;;28.00;26.10;;;;;;;;;;5073399;28;20508;-59
2021/10/13 09:07:33;;;;;;;28.67;26.97;;;;;;;;;;5074452;28;20815;-59
2021/10/13 09:10:00;;;;;;;29.03;27.13;;;;;;;;;;5074632;28;20949;-62
2021/10/13 09:12:31;;;;;;;29.53;27.93;;;;;;;;;;5067351;28;20965;-62
2021/10/13 09:15:05;;;;;;;28.73;27.03;;;;;;;;;;5054183;28;20491;-62
2021/10/13 09:17:32;;;;;;;28.70;27.20;;;;;;;;;;5054748;28;20449;-63
2021/10/13 09:19:59;;;;;;;30.33;28.20;;;;;;;;;;5058027;28;20464;-62
2021/10/13 09:22:27;;;;;;;30.00;28.10;;;;;;;;;;5074504;28;20917;-62
2021/10/13 09:24:55;;;;;;;30.03;28.03;;;;;;;;;;5073184;28;20475;-62
2021/10/13 09:27:24;;;;;;;29.03;27.33;;;;;;;;;;5092962;22;20832;-66
2021/10/13 09:29:51;;;;;;;29.40;27.40;;;;;;;;;;5069781;28;21015;-67
2021/10/13 09:32:22;;;;;;;30.67;28.97;;;;;;;;;;5066986;28;21075;-66
2021/10/13 09:34:50;;;;;;;29.03;27.23;;;;;;;;;;5075698;28;20516;-66
2021/10/13 09:37:17;;;;;;;30.17;28.17;;;;;;;;;;5093028;28;20481;-68
2021/10/13 09:39:56;;;;;;;28.43;26.77;;;;;;;;;;5093036;28;21155;-69
2021/10/13 09:42:25;;;;;;;28.47;26.27;;;;;;;;;;5093629;28;20774;-68
2021/10/13 09:44:54;;;;;;;29.37;27.77;;;;;;;;;;5092648;28;20446;-67
2021/10/13 09:47:28;;;;;;;28.90;27.00;;;;;;;;;;5094033;28;20470;-64
2021/10/13 09:49:56;;;;;;;29.07;27.17;;;;;;;;;;5087753;28;20481;-65
2021/10/13 09:52:27;;;;;;;28.50;26.80;;;;;;;;;;5073920;28;20470;-65
2021/10/13 09:54:58;;;;;;;28.13;26.43;;;;;;;;;;5073054;28;20965;-65
2021/10/13 09:57:27;;;;;;;26.93;25.30;;;;;;;;;;5073429;28;21047;-64
2021/10/13 10:00:07;;;;;;;27.20;25.70;;;;;;;;;;5076782;28;20457;-66
2021/10/13 10:02:35;;;;;;;32.23;30.53;;;;;;;;;;5073430;28;20902;-65
2021/10/13 10:05:04;;;;;;;31.20;29.50;;;;;;;;;;5079758;28;20450;-65
2021/10/13 10:07:31;;;;;;;30.83;29.10;;;;;;;;;;5093161;28;20462;-66
2021/10/13 10:10:12;;;;;;;30.73;28.93;;;;;;;;;;5093454;28;20784;-65
2021/10/13 10:13:00;;;;;;;30.93;29.30;;;;;;;;;;5093643;28;20426;-66
2021/10/13 10:15:31;;;;;;;29.47;27.77;;;;;;;;;;5092459;28;20477;-65
2021/10/13 10:17:58;;;;;;;29.73;28.10;;;;;;;;;;5089168;28;21027;-65
2021/10/13 10:20:39;;;;;;;30.53;28.90;;;;;;;;;;5073171;28;20447;-65
2021/10/13 10:23:25;;;;;;;28.30;26.70;;;;;;;;;;5073171;28;20439;-64
2021/10/13 10:25:52;;;;;;;28.73;27.03;;;;;;;;;;5075994;28;20446;-65
2021/10/13 10:28:34;;;;;;;28.87;27.23;;;;;;;;;;5092780;28;20485;-65
2021/10/13 10:31:16;;;;;;;28.90;27.30;;;;;;;;;;5092125;28;20452;-66
2021/10/13 10:33:50;;;;;;;27.60;26.10;;;;;;;;;;5077229;28;20443;-65
2021/10/13 10:36:17;;;;;;;28.83;27.30;;;;;;;;;;5067007;28;20434;-65
2021/10/13 10:38:48;;;;;;;28.50;27.10;;;;;;;;;;5082089;28;20940;-64
2021/10/13 10:41:15;;;;;;;28.20;26.60;;;;;;;;;;5093068;28;20442;-65
2021/10/13 10:43:42;;;;;;;28.80;27.20;;;;;;;;;;5073542;28;20970;-64
2021/10/13 10:46:09;;;;;;;27.70;26.30;;;;;;;;;;5071836;28;20467;-65
2021/10/13 10:48:44;;;;;;;27.57;26.00;;;;;;;;;;5072939;28;20454;-64
2021/10/13 10:51:13;;;;;;;29.50;27.90;;;;;;;;;;5073155;28;20465;-65
2021/10/13 10:53:41;;;;;;;28.10;26.50;;;;;;;;;;5087163;28;20473;-65
2021/10/13 10:56:22;;;;;;;28.37;26.77;;;;;;;;;;5072277;28;20479;-66
2021/10/13 10:59:03;;;;;;;28.77;27.27;;;;;;;;;;5070813;28;20836;-64
2021/10/13 11:01:30;;;;;;;28.30;26.80;;;;;;;;;;5067897;28;20470;-65
2021/10/13 11:03:57;;;;;;;28.07;26.57;;;;;;;;;;5069736;28;20454;-65
2021/10/13 11:06:27;;;;;;;28.73;27.20;;;;;;;;;;5067568;28;20997;-65
2021/10/13 11:08:55;;;;;;;27.63;26.23;;;;;;;;;;5075435;28;20466;-65
2021/10/13 11:11:23;;;;;;;27.77;26.17;;;;;;;;;;5072279;28;20942;-65
2021/10/13 11:13:57;;;;;;;26.03;24.60;;;;;;;;;;5075071;28;20995;-65
2021/10/13 11:16:24;;;;;;;27.03;25.67;;;;;;;;;;5058876;28;20482;-66
2021/10/13 11:18:51;;;;;;;27.47;25.90;;;;;;;;;;5052060;28;20447;-64
2021/10/13 11:21:18;;;;;;;26.60;25.10;;;;;;;;;;5068046;28;20463;-65
2021/10/13 11:23:47;;;;;;;27.30;25.80;;;;;;;;;;5071345;28;20470;-64
2021/10/13 11:26:14;;;;;;;26.60;25.10;;;;;;;;;;5051537;28;20451;-66
2021/10/13 11:28:42;;;;;;;27.30;25.70;;;;;;;;;;5071708;28;20443;-65
2021/10/13 11:31:09;;;;;;;22.70;21.50;;;;;;;;;;5073679;28;20462;-65
2021/10/13 11:33:38;;;;;;;24.63;23.30;;;;;;;;;;5051969;28;20452;-64
2021/10/13 11:36:06;;;;;;;25.87;24.57;;;;;;;;;;5062098;28;20481;-64
2021/10/13 11:38:34;;;;;;;25.73;24.30;;;;;;;;;;5071882;28;20447;-65
2021/10/13 11:41:08;;;;;;;26.97;25.57;;;;;;;;;;5072184;28;20446;-65
2021/10/13 11:43:35;;;;;;;25.00;23.60;;;;;;;;;;5071520;28;20578;-64
2021/10/13 11:46:03;;;;;;;26.87;25.47;;;;;;;;;;5071382;28;20447;-64
2021/10/13 11:48:31;;;;;;;26.67;25.07;;;;;;;;;;5066981;28;20463;-65
2021/10/13 11:51:00;;;;;;;25.10;23.70;;;;;;;;;;5073814;28;20458;-65
2021/10/13 11:53:27;;;;;;;25.73;24.33;;;;;;;;;;5071319;28;20957;-65
2021/10/13 11:55:55;;;;;;;25.57;24.27;;;;;;;;;;5077391;28;20477;-64
2021/10/13 11:58:26;;;;;;;25.70;24.40;;;;;;;;;;5091870;28;20564;-65
2021/10/13 12:00:54;;;;;;;23.60;22.20;;;;;;;;;;5090998;28;20453;-65
2021/10/13 12:03:28;;;;;;;27.77;26.37;;;;;;;;;;5085629;28;20805;-64
2021/10/13 12:05:58;;;;;;;23.07;21.87;;;;;;;;;;5076360;28;20941;-64
2021/10/13 12:08:27;;;;;;;22.90;21.70;;;;;;;;;;5072055;28;20467;-66
2021/10/13 12:10:55;;;;;;;23.03;21.83;;;;;;;;;;5084853;28;20446;-66
2021/10/13 12:13:25;;;;;;;23.20;22.00;;;;;;;;;;5077901;28;20976;-65
2021/10/13 12:15:57;;;;;;;23.60;22.30;;;;;;;;;;5070963;28;20977;-66
2021/10/13 12:18:26;;;;;;;23.20;21.97;;;;;;;;;;5068470;28;20474;-66
2021/10/13 12:20:54;;;;;;;23.53;22.23;;;;;;;;;;5076529;28;20450;-64
2021/10/13 12:23:22;;;;;;;22.37;21.10;;;;;;;;;;5091754;28;20446;-65
2021/10/13 12:25:49;;;;;;;23.30;22.00;;;;;;;;;;5089303;28;20442;-65
2021/10/13 12:28:18;;;;;;;23.40;22.10;;;;;;;;;;5089904;28;20492;-65
2021/10/13 12:30:45;;;;;;;23.90;22.50;;;;;;;;;;5071355;28;20451;-65
2021/10/13 12:33:16;;;;;;;22.60;21.50;;;;;;;;;;5070965;28;20442;-65
2021/10/13 12:35:44;;;;;;;28.70;27.10;;;;;;;;;;5077620;28;20477;-64
2021/10/13 12:38:12;;;;;;;36.97;34.70;;;;;;;;;;5091629;28;20466;-63
2021/10/13 12:40:39;;;;;;;68.17;64.87;;;;;;;;;;5072265;28;20454;-64
2021/10/13 12:43:19;;;;;;;100.50;95.90;;;;;;;;;;5071085;28;20450;-64
2021/10/13 12:45:47;;;;;;;140.47;134.27;;;;;;;;;;5070578;28;20443;-64
2021/10/13 12:48:16;;;;;;;162.90;155.90;;;;;;;;;;5070790;28;20477;-65
2021/10/13 12:51:02;;;;;;;162.97;155.77;;;;;;;;;;5070871;28;20960;-65
2021/10/13 12:53:29;;;;;;;177.77;169.83;;;;;;;;;;5071030;28;20443;-65
2021/10/13 12:55:57;;;;;;;180.87;171.97;;;;;;;;;;5070434;28;20483;-65
2021/10/13 12:58:26;;;;;;;214.67;204.97;;;;;;;;;;5071843;28;20470;-65
2021/10/13 13:00:53;;;;;;;216.10;206.43;;;;;;;;;;5089778;28;20454;-64
2021/10/13 13:03:23;;;;;;;211.60;201.50;;;;;;;;;;5074939;28;20450;-65
2021/10/13 13:05:50;;;;;;;206.67;195.90;;;;;;;;;;5087088;28;20454;-65
2021/10/13 13:08:17;;;;;;;221.30;210.90;;;;;;;;;;5094385;28;20511;-65
2021/10/13 13:10:44;;;;;;;222.03;211.33;;;;;;;;;;5094865;28;20473;-65
2021/10/13 13:13:11;;;;;;;219.07;207.97;;;;;;;;;;5087772;28;20512;-65
2021/10/13 13:15:38;;;;;;;235.87;224.57;;;;;;;;;;5054131;28;20476;-64
2021/10/13 13:18:06;;;;;;;243.67;232.47;;;;;;;;;;5054178;28;20463;-64
2021/10/13 13:20:34;;;;;;;249.10;238.00;;;;;;;;;;5054311;28;20447;-65
2021/10/13 13:23:01;;;;;;;244.57;234.07;;;;;;;;;;5055249;28;20931;-65
2021/10/13 13:25:28;;;;;;;155.97;149.33;;;;;;;;;;5053988;28;20451;-65
2021/10/13 13:27:55;;;;;;;103.50;98.90;;;;;;;;;;5054377;28;21017;-64
2021/10/13 13:30:23;;;;;;;117.73;112.63;;;;;;;;;;5087970;28;20474;-65
2021/10/13 13:32:50;;;;;;;145.70;139.60;;;;;;;;;;5092578;28;20446;-65
2021/10/13 13:35:17;;;;;;;180.43;172.93;;;;;;;;;;5073157;28;20486;-64
2021/10/13 13:37:45;;;;;;;207.80;199.40;;;;;;;;;;5074040;28;20478;-64
2021/10/13 13:40:13;;;;;;;211.77;203.07;;;;;;;;;;5074073;28;20458;-64
2021/10/13 13:42:41;;;;;;;191.27;183.23;;;;;;;;;;5082307;28;20454;-64
2021/10/13 13:45:09;;;;;;;202.40;194.50;;;;;;;;;;5057437;28;20454;-64
2021/10/13 13:47:37;;;;;;;154.70;148.10;;;;;;;;;;5053623;28;20493;-64
2021/10/13 13:50:05;;;;;;;145.80;139.70;;;;;;;;;;5053882;28;20451;-64
2021/10/13 13:52:32;;;;;;;167.73;160.83;;;;;;;;;;5073467;28;20469;-65
2021/10/13 13:55:01;;;;;;;215.53;207.03;;;;;;;;;;5073429;28;20451;-64
2021/10/13 13:57:28;;;;;;;239.30;230.03;;;;;;;;;;5082580;28;20471;-64
2021/10/13 13:59:55;;;;;;;235.37;226.07;;;;;;;;;;5073710;28;20446;-64
2021/10/13 14:02:23;;;;;;;267.63;257.13;;;;;;;;;;5057303;28;20487;-64
2021/10/13 14:04:50;;;;;;;249.63;239.03;;;;;;;;;;5053497;28;20455;-64
2021/10/13 14:07:18;;;;;;;282.93;271.77;;;;;;;;;;5069756;28;20478;-64
2021/10/13 14:09:45;;;;;;;271.73;260.97;;;;;;;;;;5074272;28;20451;-65
2021/10/13 14:12:14;;;;;;;203.97;195.70;;;;;;;;;;5074089;28;20447;-65
2021/10/13 14:14:41;;;;;;;132.87;126.90;;;;;;;;;;5072747;28;20938;-64
2021/10/13 14:17:08;;;;;;;119.77;114.67;;;;;;;;;;5086814;28;20486;-65
2021/10/13 14:19:35;;;;;;;92.23;88.07;;;;;;;;;;5092398;28;20442;-64